Providence, Rhode Island
Current Conditions -  °F | °C
As of 2:29 AM on Thursday 23 Oct 2014 (Local Time) from KPVD Reporting Station
Overcast Overcast  
Wind Chill: 52°   Ceiling: 2900
Heat Index: 52°   Visibility: 10mi
Dew Point: 49°   Wind: 25mph
Humidity: 89%   Direction: 10°N
Pressure: 29.69"   Gusts: 32mph
Location:  41.82°N, 71.41°W
Report Text: KPVD 230629Z AUTO 01022G28KT 10SM SCT014 OVC029 11/09 A2969 RMK AO2 PK WND 36034/0604 RAE12 P0000 T01110094
Loading
Personal Weather Stations






























Interactive Weather Map
Tropical Storm Tracking
New forecast layout! Learn more

10-Day Weather Forecast

Advertisements
Track Severe Weather on mobile